createdAt,value
2018-11-07T00:00:49.212Z,13.00
2018-11-07T00:03:17.655Z,13.00
2018-11-07T00:05:47.365Z,12.90
2018-11-07T00:08:16.129Z,12.90
2018-11-07T00:10:44.393Z,13.00
2018-11-07T00:13:12.717Z,13.00
2018-11-07T00:15:41.081Z,13.00
2018-11-07T00:18:09.393Z,13.00
2018-11-07T00:20:37.674Z,13.00
2018-11-07T00:23:05.967Z,13.00
2018-11-07T00:25:34.268Z,12.90
2018-11-07T00:28:02.633Z,13.00
2018-11-07T00:30:30.982Z,13.00
2018-11-07T00:32:59.474Z,13.00
2018-11-07T00:35:27.832Z,13.00
2018-11-07T00:37:56.146Z,13.00
2018-11-07T00:40:24.514Z,13.00
2018-11-07T00:42:52.821Z,13.00
2018-11-07T00:45:21.135Z,13.00
2018-11-07T00:47:49.508Z,13.00
2018-11-07T00:50:18.912Z,12.90
2018-11-07T00:52:47.259Z,12.90
2018-11-07T00:55:16.326Z,12.90
2018-11-07T00:57:44.969Z,12.90
2018-11-07T01:00:15.569Z,12.90
2018-11-07T01:02:45.197Z,12.80
2018-11-07T01:05:13.973Z,12.80
2018-11-07T01:07:43.748Z,12.80
2018-11-07T01:10:12.517Z,12.80
2018-11-07T01:12:42.643Z,12.80
2018-11-07T01:15:11.745Z,12.80
2018-11-07T01:17:40.189Z,12.80
2018-11-07T01:20:09.899Z,12.70
2018-11-07T01:22:38.187Z,12.70
2018-11-07T01:25:07.333Z,12.70
2018-11-07T01:27:35.824Z,12.60
2018-11-07T01:30:04.860Z,12.60
2018-11-07T01:32:33.343Z,12.60
2018-11-07T01:35:01.695Z,12.60
2018-11-07T01:37:30.100Z,12.50
2018-11-07T01:39:58.455Z,12.50
2018-11-07T01:42:26.937Z,12.50
2018-11-07T01:44:55.302Z,12.40
2018-11-07T01:47:23.652Z,12.40
2018-11-07T01:49:52.097Z,12.40
2018-11-07T01:52:20.461Z,12.40
2018-11-07T01:54:48.797Z,12.30
2018-11-07T01:57:17.278Z,12.30
2018-11-07T01:59:45.637Z,12.30
2018-11-07T02:02:13.958Z,12.20
2018-11-07T02:04:42.829Z,12.20
2018-11-07T02:07:11.242Z,12.20
2018-11-07T02:09:39.680Z,12.20
2018-11-07T02:12:08.009Z,12.20
2018-11-07T02:14:36.349Z,12.10
2018-11-07T02:17:04.886Z,12.10
2018-11-07T02:19:50.174Z,12.10
2018-11-07T02:22:18.610Z,12.00
2018-11-07T02:24:47.025Z,12.00
2018-11-07T02:27:15.486Z,12.00
2018-11-07T02:29:43.801Z,12.00
2018-11-07T02:32:12.109Z,12.00
2018-11-07T02:34:40.503Z,12.00
2018-11-07T02:37:09.122Z,12.00
2018-11-07T02:39:37.777Z,11.90
2018-11-07T02:42:06.279Z,11.90
2018-11-07T02:44:34.669Z,11.90
2018-11-07T02:47:03.220Z,11.90
2018-11-07T02:49:31.701Z,11.90
2018-11-07T02:52:00.350Z,11.90
2018-11-07T02:54:28.908Z,11.90
2018-11-07T02:56:57.245Z,11.90
2018-11-07T02:59:25.602Z,11.90
2018-11-07T03:01:53.911Z,11.80
2018-11-07T03:04:23.240Z,11.80
2018-11-07T03:06:51.617Z,11.80
2018-11-07T03:09:20.064Z,11.80
2018-11-07T03:11:48.459Z,11.80
2018-11-07T03:14:16.874Z,11.80
2018-11-07T03:16:45.281Z,11.70
2018-11-07T03:19:13.763Z,11.70
2018-11-07T03:21:42.116Z,11.70
2018-11-07T03:24:10.435Z,11.70
2018-11-07T03:26:39.297Z,11.60
2018-11-07T03:29:07.693Z,11.70
2018-11-07T03:31:36.008Z,11.60
2018-11-07T03:34:04.328Z,11.60
2018-11-07T03:36:32.804Z,11.60
2018-11-07T03:39:01.167Z,11.60
2018-11-07T03:41:29.583Z,11.60
2018-11-07T03:43:58.954Z,11.50
2018-11-07T03:46:27.256Z,11.50
2018-11-07T03:48:55.568Z,11.50
2018-11-07T03:51:23.930Z,11.40
2018-11-07T03:53:52.293Z,11.40
2018-11-07T03:56:20.684Z,11.40
2018-11-07T03:58:49.140Z,11.30
2018-11-07T04:01:17.613Z,11.30
2018-11-07T04:03:45.978Z,11.30
2018-11-07T04:06:14.477Z,11.20
2018-11-07T04:08:42.861Z,11.20
2018-11-07T04:11:11.234Z,11.20
2018-11-07T04:13:39.892Z,11.10
2018-11-07T04:16:08.257Z,11.20
2018-11-07T04:18:36.689Z,11.10
2018-11-07T04:21:05.261Z,11.10
2018-11-07T04:23:33.645Z,11.10
2018-11-07T04:26:02.138Z,11.00
2018-11-07T04:28:30.749Z,11.00
2018-11-07T04:30:59.668Z,11.00
2018-11-07T04:33:28.028Z,11.00
2018-11-07T04:35:56.443Z,11.00
2018-11-07T04:38:24.855Z,11.00
2018-11-07T04:40:53.306Z,11.00
2018-11-07T04:43:21.650Z,10.90
2018-11-07T04:45:50.045Z,10.90
2018-11-07T04:48:18.366Z,10.90
2018-11-07T04:50:46.684Z,10.90
2018-11-07T04:53:15.240Z,10.90
2018-11-07T04:55:43.688Z,10.90
2018-11-07T04:58:12.078Z,10.90
2018-11-07T05:00:40.413Z,10.80
2018-11-07T05:03:08.829Z,10.80
2018-11-07T05:05:37.217Z,10.80
2018-11-07T05:08:05.648Z,10.80
2018-11-07T05:10:34.016Z,10.80
2018-11-07T05:13:02.552Z,10.80
2018-11-07T05:15:31.222Z,10.80
2018-11-07T05:17:59.855Z,10.80
2018-11-07T05:20:28.541Z,10.80
2018-11-07T05:22:57.220Z,10.80
2018-11-07T05:25:25.717Z,10.70
2018-11-07T05:27:54.157Z,10.70
2018-11-07T05:30:22.680Z,10.70
2018-11-07T05:32:51.153Z,10.70
2018-11-07T05:35:19.617Z,10.70
2018-11-07T05:37:48.100Z,10.70
2018-11-07T05:40:16.830Z,10.70
2018-11-07T05:42:46.985Z,10.70
2018-11-07T05:45:15.362Z,10.70
2018-11-07T05:47:43.905Z,10.70
2018-11-07T05:50:12.249Z,10.70
2018-11-07T05:52:40.863Z,10.70
2018-11-07T05:55:10.127Z,10.70
2018-11-07T05:57:39.284Z,10.70
2018-11-07T06:00:09.653Z,10.70
2018-11-07T06:02:39.521Z,10.60
2018-11-07T06:05:09.414Z,10.60
2018-11-07T06:07:38.577Z,10.60
2018-11-07T06:10:09.322Z,10.60
2018-11-07T06:12:38.362Z,10.60
2018-11-07T06:15:08.681Z,10.60
2018-11-07T06:17:37.432Z,10.60
2018-11-07T06:20:06.899Z,10.50
2018-11-07T06:22:35.561Z,10.50
2018-11-07T06:25:04.275Z,10.60
2018-11-07T06:27:34.167Z,10.60
2018-11-07T06:30:03.986Z,10.60
2018-11-07T06:32:32.826Z,10.60
2018-11-07T06:35:01.213Z,10.60
2018-11-07T06:37:29.684Z,10.60
2018-11-07T06:40:10.098Z,10.60
2018-11-07T06:42:38.515Z,10.70
2018-11-07T06:45:07.833Z,10.60
2018-11-07T06:47:42.908Z,10.70
2018-11-07T06:50:14.406Z,10.60
2018-11-07T06:52:58.168Z,10.70
2018-11-07T06:55:29.714Z,10.60
2018-11-07T06:58:01.098Z,10.70
2018-11-07T07:00:34.404Z,10.70
2018-11-07T07:03:05.960Z,10.70
2018-11-07T07:05:34.638Z,10.70
2018-11-07T07:08:04.909Z,10.70
2018-11-07T07:10:38.644Z,10.70
2018-11-07T07:13:07.686Z,10.70
2018-11-07T07:15:36.112Z,10.70
2018-11-07T07:18:04.621Z,10.70
2018-11-07T07:20:33.033Z,10.80
2018-11-07T07:23:01.650Z,10.80
2018-11-07T07:25:30.962Z,10.80
2018-11-07T07:27:59.685Z,10.80
2018-11-07T07:30:28.140Z,10.80
2018-11-07T07:32:56.599Z,10.90
2018-11-07T07:35:25.189Z,10.90
2018-11-07T07:37:53.653Z,11.00
2018-11-07T07:40:21.988Z,11.00
2018-11-07T07:42:50.367Z,11.00
2018-11-07T07:45:20.037Z,11.00
2018-11-07T07:47:48.514Z,11.00
2018-11-07T07:50:18.200Z,11.00
2018-11-07T07:52:46.876Z,11.10
2018-11-07T07:55:15.459Z,11.10
2018-11-07T07:57:44.457Z,11.10
2018-11-07T08:00:18.363Z,11.10
2018-11-07T08:02:49.121Z,11.10
2018-11-07T08:05:17.572Z,11.10
2018-11-07T08:07:46.906Z,11.10
2018-11-07T08:10:16.542Z,11.10
2018-11-07T08:12:45.378Z,11.20
2018-11-07T08:15:14.390Z,11.20
2018-11-07T08:17:43.651Z,11.20
2018-11-07T08:20:14.499Z,11.30
2018-11-07T08:22:44.402Z,11.30
2018-11-07T08:25:13.096Z,11.30
2018-11-07T08:27:41.411Z,11.40
2018-11-07T08:30:11.866Z,11.40
2018-11-07T08:32:41.366Z,11.50
2018-11-07T08:35:11.130Z,11.50
2018-11-07T08:37:40.127Z,11.60
2018-11-07T08:40:14.395Z,11.60
2018-11-07T08:42:43.687Z,11.70
2018-11-07T08:45:13.738Z,11.70
2018-11-07T08:47:43.392Z,11.70
2018-11-07T08:50:13.906Z,11.80
2018-11-07T08:52:43.510Z,11.80
2018-11-07T08:55:13.491Z,11.90
2018-11-07T08:57:41.917Z,11.90
2018-11-07T09:00:13.194Z,12.00
2018-11-07T09:02:42.618Z,12.00
2018-11-07T09:05:11.647Z,12.00
2018-11-07T09:07:41.033Z,12.00
2018-11-07T09:10:11.141Z,12.10
2018-11-07T09:12:39.618Z,12.10
2018-11-07T09:15:10.790Z,12.20
2018-11-07T09:17:39.325Z,12.20
2018-11-07T09:20:09.471Z,12.20
2018-11-07T09:22:37.972Z,12.30
2018-11-07T09:25:07.278Z,12.30
2018-11-07T09:27:36.260Z,12.30
2018-11-07T09:30:05.465Z,12.40
2018-11-07T09:32:33.840Z,12.40
2018-11-07T09:35:02.201Z,12.40
2018-11-07T09:37:30.669Z,12.40
2018-11-07T09:39:59.804Z,12.50
2018-11-07T09:42:28.178Z,12.40
2018-11-07T09:44:56.878Z,12.40
2018-11-07T09:47:25.328Z,12.50
2018-11-07T09:49:53.921Z,12.50
2018-11-07T09:52:22.365Z,12.50
2018-11-07T09:54:50.785Z,12.60
2018-11-07T09:57:19.489Z,12.50
2018-11-07T09:59:47.861Z,12.50
2018-11-07T10:02:16.261Z,12.50
2018-11-07T10:04:44.641Z,12.50
2018-11-07T10:07:13.202Z,12.60
2018-11-07T10:09:41.583Z,12.60
2018-11-07T10:12:10.612Z,12.60
2018-11-07T10:14:39.426Z,12.60
2018-11-07T10:17:07.983Z,12.60
2018-11-07T10:19:36.552Z,12.70
2018-11-07T10:22:07.143Z,12.70
2018-11-07T10:24:35.605Z,12.70
2018-11-07T10:27:05.156Z,12.60
2018-11-07T10:29:33.852Z,12.70
2018-11-07T10:32:02.137Z,12.70
2018-11-07T10:34:30.666Z,12.70
2018-11-07T10:36:59.965Z,12.70
2018-11-07T10:39:29.209Z,12.70
2018-11-07T10:41:58.280Z,12.80
2018-11-07T10:44:26.701Z,12.80
2018-11-07T10:46:55.065Z,12.80
2018-11-07T10:49:25.221Z,12.80
2018-11-07T10:51:53.700Z,12.80
2018-11-07T10:54:22.458Z,12.80
2018-11-07T10:56:50.889Z,12.80
2018-11-07T11:00:22.818Z,12.80
2018-11-07T11:02:57.162Z,12.90
2018-11-07T11:05:25.636Z,12.90
2018-11-07T11:07:53.939Z,12.90
2018-11-07T11:10:22.978Z,12.80
2018-11-07T11:12:51.264Z,12.80
2018-11-07T11:15:19.581Z,12.80
2018-11-07T11:17:47.878Z,12.80
2018-11-07T11:20:16.226Z,12.90
2018-11-07T11:22:44.638Z,12.90
2018-11-07T11:25:13.102Z,12.90
2018-11-07T11:27:42.106Z,12.90
2018-11-07T11:30:10.843Z,12.90
2018-11-07T11:32:39.911Z,12.90
2018-11-07T11:35:09.439Z,12.90
2018-11-07T11:37:37.634Z,12.90
2018-11-07T11:40:07.393Z,12.90
2018-11-07T11:42:35.697Z,13.00
2018-11-07T11:45:04.662Z,13.00
2018-11-07T11:47:32.943Z,13.00
2018-11-07T11:50:01.286Z,13.00
2018-11-07T11:52:29.600Z,13.10
2018-11-07T11:54:58.139Z,13.00
2018-11-07T11:57:26.550Z,13.00
2018-11-07T11:59:55.057Z,13.10
2018-11-07T12:02:27.786Z,13.10
2018-11-07T12:04:56.099Z,13.10
2018-11-07T12:07:24.517Z,13.10
2018-11-07T12:09:53.241Z,13.10
2018-11-07T12:12:21.553Z,13.10
2018-11-07T12:14:49.882Z,13.10
2018-11-07T12:17:18.199Z,13.10
2018-11-07T12:19:46.525Z,13.10
2018-11-07T12:22:14.884Z,13.10
2018-11-07T12:24:43.298Z,13.10
2018-11-07T12:27:11.818Z,13.10
2018-11-07T12:29:40.308Z,13.10
2018-11-07T12:32:08.808Z,13.00
2018-11-07T12:34:37.201Z,13.00
2018-11-07T12:37:05.672Z,13.00
2018-11-07T12:39:34.187Z,13.00
2018-11-07T12:42:02.733Z,13.00
2018-11-07T12:44:31.085Z,13.00
2018-11-07T12:46:59.443Z,13.00
2018-11-07T12:49:27.880Z,13.00
2018-11-07T12:51:56.308Z,13.00
2018-11-07T12:54:24.637Z,12.90
2018-11-07T12:56:52.952Z,12.90
2018-11-07T12:59:21.227Z,12.90
2018-11-07T13:01:49.612Z,12.80
2018-11-07T13:04:18.161Z,12.80
2018-11-07T13:06:46.481Z,12.90
2018-11-07T13:09:14.948Z,12.90
2018-11-07T13:11:43.421Z,12.80
2018-11-07T13:14:11.809Z,12.80
2018-11-07T13:16:40.603Z,12.80
2018-11-07T13:19:09.262Z,12.80
2018-11-07T13:21:37.633Z,12.80
2018-11-07T13:24:06.062Z,12.80
2018-11-07T13:26:34.373Z,12.80
2018-11-07T13:29:02.825Z,12.80
2018-11-07T13:31:31.204Z,12.80
2018-11-07T13:33:59.509Z,12.80
2018-11-07T13:36:28.136Z,12.80
2018-11-07T13:38:56.959Z,12.80
2018-11-07T13:41:24.880Z,12.80
2018-11-07T13:43:53.297Z,12.70
2018-11-07T13:46:21.660Z,12.70
2018-11-07T13:48:50.034Z,12.70
2018-11-07T13:51:18.684Z,12.60
2018-11-07T13:53:47.014Z,12.60
2018-11-07T13:56:16.053Z,12.60
2018-11-07T13:58:44.514Z,12.60
2018-11-07T14:01:13.105Z,12.60
2018-11-07T14:03:41.604Z,12.60
2018-11-07T14:06:10.537Z,12.50
2018-11-07T14:08:39.021Z,12.50
2018-11-07T14:11:07.413Z,12.50
2018-11-07T14:13:35.738Z,12.50
2018-11-07T14:16:04.408Z,12.50
2018-11-07T14:18:32.657Z,12.50
2018-11-07T14:21:01.262Z,12.50
2018-11-07T14:23:29.734Z,12.50
2018-11-07T14:25:58.077Z,12.50
2018-11-07T14:28:26.566Z,12.50
2018-11-07T14:30:54.945Z,12.50
2018-11-07T14:33:23.336Z,12.50
2018-11-07T14:35:51.640Z,12.60
2018-11-07T14:38:20.162Z,12.50
2018-11-07T14:40:48.558Z,12.50
2018-11-07T14:43:17.074Z,12.50
2018-11-07T14:45:45.387Z,12.60
2018-11-07T14:48:13.825Z,12.60
2018-11-07T14:50:42.247Z,12.60
2018-11-07T14:53:10.655Z,12.60
2018-11-07T14:55:39.039Z,12.60
2018-11-07T14:58:07.401Z,12.70
2018-11-07T15:00:35.863Z,12.60
2018-11-07T15:03:04.323Z,12.60
2018-11-07T15:05:33.271Z,12.70
2018-11-07T15:08:01.574Z,12.70
2018-11-07T15:10:29.889Z,12.60
2018-11-07T15:12:58.435Z,12.60
2018-11-07T15:15:27.643Z,12.60
2018-11-07T15:17:56.105Z,12.60
2018-11-07T15:20:24.408Z,12.60
2018-11-07T15:22:52.907Z,12.60
2018-11-07T15:25:21.322Z,12.60
2018-11-07T15:27:49.620Z,12.60
2018-11-07T15:30:18.622Z,12.60
2018-11-07T15:32:47.262Z,12.60
2018-11-07T15:35:16.906Z,12.60
2018-11-07T15:37:45.517Z,12.60
2018-11-07T15:40:15.848Z,12.60
2018-11-07T15:42:44.830Z,12.60
2018-11-07T15:45:14.725Z,12.60
2018-11-07T15:47:43.324Z,12.60
2018-11-07T15:50:17.205Z,12.60
2018-11-07T15:52:47.168Z,12.60
2018-11-07T15:55:15.708Z,12.60
2018-11-07T15:57:44.229Z,12.60
2018-11-07T16:00:15.075Z,12.60
2018-11-07T16:02:43.643Z,12.60
2018-11-07T16:05:13.352Z,12.60
2018-11-07T16:07:41.764Z,12.50
2018-11-07T16:10:11.713Z,12.60
2018-11-07T16:12:41.139Z,12.50
2018-11-07T16:15:11.349Z,12.60
2018-11-07T16:17:40.228Z,12.60
2018-11-07T16:20:11.592Z,12.60
2018-11-07T16:22:40.780Z,12.60
2018-11-07T16:25:09.410Z,12.60
2018-11-07T16:27:38.212Z,12.60
2018-11-07T16:30:08.532Z,12.60
2018-11-07T16:32:36.822Z,12.60
2018-11-07T16:35:05.279Z,12.50
2018-11-07T16:37:33.816Z,12.50
2018-11-07T16:40:02.234Z,12.50
2018-11-07T16:42:30.573Z,12.50
2018-11-07T16:44:58.856Z,12.50
2018-11-07T16:47:27.606Z,12.50
2018-11-07T16:49:55.873Z,12.50
2018-11-07T16:52:24.307Z,12.50
2018-11-07T16:54:52.660Z,12.60
2018-11-07T16:57:21.001Z,12.60
2018-11-07T16:59:49.276Z,12.60
2018-11-07T17:02:17.558Z,12.60
2018-11-07T17:04:46.207Z,12.60
2018-11-07T17:07:14.623Z,12.60
2018-11-07T17:09:42.975Z,12.50
2018-11-07T17:12:11.293Z,12.50
2018-11-07T17:14:39.836Z,12.50
2018-11-07T17:17:08.249Z,12.60
2018-11-07T17:19:36.644Z,12.60
2018-11-07T17:22:05.063Z,12.60
2018-11-07T17:24:33.579Z,12.60
2018-11-07T17:27:01.808Z,12.50
2018-11-07T17:29:30.165Z,12.50
2018-11-07T17:31:59.727Z,12.50
2018-11-07T17:34:28.079Z,12.50
2018-11-07T17:36:56.361Z,12.50
2018-11-07T17:39:24.691Z,12.50
2018-11-07T17:41:52.990Z,12.60
2018-11-07T17:44:21.320Z,12.50
2018-11-07T17:46:49.645Z,12.50
2018-11-07T17:49:17.981Z,12.50
2018-11-07T17:51:46.377Z,12.50
2018-11-07T17:54:14.842Z,12.50
2018-11-07T17:56:43.516Z,12.50
2018-11-07T17:59:12.070Z,12.50
2018-11-07T18:01:40.608Z,12.50
2018-11-07T18:04:09.503Z,12.50
2018-11-07T18:06:38.121Z,12.50
2018-11-07T18:09:08.089Z,12.50
2018-11-07T18:11:37.059Z,12.40
2018-11-07T18:14:06.524Z,12.50
2018-11-07T18:16:34.837Z,12.50
2018-11-07T18:19:03.282Z,12.50
2018-11-07T18:21:38.637Z,12.50
2018-11-07T18:24:07.568Z,12.50
2018-11-07T18:26:35.888Z,12.40
2018-11-07T18:29:05.653Z,12.50
2018-11-07T18:31:34.190Z,12.50
2018-11-07T18:34:02.633Z,12.50
2018-11-07T18:36:31.293Z,12.50
2018-11-07T18:38:59.699Z,12.50
2018-11-07T18:41:28.125Z,12.50
2018-11-07T18:43:56.505Z,12.50
2018-11-07T18:46:24.868Z,12.50
2018-11-07T18:48:53.275Z,12.50
2018-11-07T18:51:41.421Z,12.50
2018-11-07T18:54:24.440Z,12.50
2018-11-07T18:56:52.798Z,12.50
2018-11-07T18:59:21.229Z,12.50
2018-11-07T19:01:50.337Z,12.50
2018-11-07T19:04:18.913Z,12.40
2018-11-07T19:06:47.364Z,12.50
2018-11-07T19:09:15.651Z,12.40
2018-11-07T19:11:44.499Z,12.40
2018-11-07T19:14:12.918Z,12.40
2018-11-07T19:16:41.362Z,12.40
2018-11-07T19:19:09.706Z,12.40
2018-11-07T19:21:38.261Z,12.40
2018-11-07T19:24:06.808Z,12.30
2018-11-07T19:26:36.573Z,12.30
2018-11-07T19:29:05.277Z,12.30
2018-11-07T19:31:33.680Z,12.30
2018-11-07T19:34:02.054Z,12.30
2018-11-07T19:36:30.666Z,12.30
2018-11-07T19:38:59.248Z,12.30
2018-11-07T19:41:27.755Z,12.30
2018-11-07T19:43:56.288Z,12.30
2018-11-07T19:46:24.731Z,12.30
2018-11-07T19:48:53.377Z,12.30
2018-11-07T19:51:21.739Z,12.30
2018-11-07T19:53:51.020Z,12.30
2018-11-07T19:56:19.425Z,12.30
2018-11-07T19:58:48.070Z,12.20
2018-11-07T20:01:16.593Z,12.20
2018-11-07T20:03:45.014Z,12.20
2018-11-07T20:06:13.634Z,12.10
2018-11-07T20:08:42.177Z,12.10
2018-11-07T20:11:10.604Z,12.10
2018-11-07T20:13:39.299Z,12.10
2018-11-07T20:16:08.357Z,12.00
2018-11-07T20:18:37.303Z,12.00
2018-11-07T20:21:05.792Z,12.10
2018-11-07T20:23:34.222Z,12.00
2018-11-07T20:26:02.606Z,11.90
2018-11-07T20:28:31.116Z,11.90
2018-11-07T20:30:59.480Z,11.90
2018-11-07T20:33:27.877Z,11.90
2018-11-07T20:35:56.287Z,11.90
2018-11-07T20:38:24.559Z,11.90
2018-11-07T20:40:52.997Z,11.90
2018-11-07T20:43:21.339Z,11.90
2018-11-07T20:45:49.828Z,11.90
2018-11-07T20:48:18.315Z,11.80
2018-11-07T20:50:46.675Z,11.80
2018-11-07T20:53:15.659Z,11.80
2018-11-07T20:55:44.097Z,11.80
2018-11-07T20:58:12.546Z,11.80
2018-11-07T21:00:41.505Z,11.80
2018-11-07T21:03:09.993Z,11.80
2018-11-07T21:05:38.507Z,11.80
2018-11-07T21:08:07.516Z,11.80
2018-11-07T21:10:35.913Z,11.80
2018-11-07T21:13:04.410Z,11.80
2018-11-07T21:15:33.130Z,11.80
2018-11-07T21:18:01.677Z,11.80
2018-11-07T21:20:30.010Z,11.80
2018-11-07T21:22:58.404Z,11.80
2018-11-07T21:25:26.713Z,11.80
2018-11-07T21:27:55.184Z,11.80
2018-11-07T21:30:23.552Z,11.80
2018-11-07T21:32:51.868Z,11.80
2018-11-07T21:35:20.366Z,11.80
2018-11-07T21:37:48.741Z,11.80
2018-11-07T21:40:17.823Z,11.70
2018-11-07T21:42:47.084Z,11.80
2018-11-07T21:45:16.043Z,11.70
2018-11-07T21:47:45.080Z,11.70
2018-11-07T21:50:15.112Z,11.80
2018-11-07T21:52:43.776Z,11.80
2018-11-07T21:55:12.395Z,11.80
2018-11-07T21:57:40.864Z,11.80
2018-11-07T22:00:18.828Z,11.80
2018-11-07T22:02:47.432Z,11.70
2018-11-07T22:05:16.608Z,11.70
2018-11-07T22:07:45.427Z,11.70
2018-11-07T22:10:15.240Z,11.70
2018-11-07T22:12:43.628Z,11.70
2018-11-07T22:15:12.283Z,11.70
2018-11-07T22:17:41.343Z,11.70
2018-11-07T22:20:15.646Z,11.70
2018-11-07T22:22:44.392Z,11.70
2018-11-07T22:25:12.930Z,11.70
2018-11-07T22:27:41.259Z,11.70
2018-11-07T22:30:11.734Z,11.70
2018-11-07T22:32:40.350Z,11.70
2018-11-07T22:35:10.558Z,11.70
2018-11-07T22:37:39.011Z,11.70
2018-11-07T22:40:09.344Z,11.70
2018-11-07T22:42:37.746Z,11.60
2018-11-07T22:45:06.536Z,11.70
2018-11-07T22:47:34.990Z,11.60
2018-11-07T22:50:03.567Z,11.70
2018-11-07T22:52:31.857Z,11.70
2018-11-07T22:55:00.576Z,11.70
2018-11-07T22:57:28.877Z,11.70
2018-11-07T22:59:57.356Z,11.70
2018-11-07T23:02:25.728Z,11.60
2018-11-07T23:04:54.248Z,11.70
2018-11-07T23:07:22.541Z,11.70
2018-11-07T23:09:50.872Z,11.70
2018-11-07T23:12:19.197Z,11.70
2018-11-07T23:14:47.505Z,11.70
2018-11-07T23:17:16.652Z,11.70
2018-11-07T23:19:45.073Z,11.70
2018-11-07T23:22:13.377Z,11.60
2018-11-07T23:24:41.976Z,11.70
2018-11-07T23:27:10.637Z,11.70
2018-11-07T23:29:39.022Z,11.70
2018-11-07T23:32:07.753Z,11.60
2018-11-07T23:34:36.112Z,11.60
2018-11-07T23:37:04.526Z,11.60
2018-11-07T23:39:32.836Z,11.60
2018-11-07T23:42:01.144Z,11.60
2018-11-07T23:44:29.846Z,11.60
2018-11-07T23:46:59.925Z,11.60
2018-11-07T23:49:28.230Z,11.60
2018-11-07T23:51:56.581Z,11.60
2018-11-07T23:54:25.049Z,11.50
2018-11-07T23:56:53.438Z,11.50
2018-11-07T23:59:22.253Z,11.50
